createdAt,value
2022-12-03T00:01:59.686Z,33.13
2022-12-03T00:04:26.962Z,31.20
2022-12-03T00:06:54.040Z,32.20
2022-12-03T00:09:21.247Z,36.87
2022-12-03T00:11:48.360Z,34.90
2022-12-03T00:14:15.508Z,34.05
2022-12-03T00:16:42.544Z,34.35
2022-12-03T00:19:09.592Z,35.58
2022-12-03T00:21:36.650Z,35.90
2022-12-03T00:24:03.800Z,34.70
2022-12-03T00:26:30.908Z,32.75
2022-12-03T00:28:58.162Z,32.33
2022-12-03T00:31:26.198Z,33.90
2022-12-03T00:33:53.789Z,31.87
2022-12-03T00:36:21.163Z,35.15
2022-12-03T00:38:48.387Z,38.42
2022-12-03T00:41:15.489Z,37.75
2022-12-03T00:43:42.569Z,36.72
2022-12-03T00:46:09.953Z,35.90
2022-12-03T00:48:37.070Z,32.15
2022-12-03T00:51:04.329Z,35.10
2022-12-03T00:53:31.452Z,32.50
2022-12-03T00:55:58.567Z,36.15
2022-12-03T00:58:25.755Z,32.47
2022-12-03T01:00:52.805Z,33.92
2022-12-03T01:03:19.913Z,33.03
2022-12-03T01:05:47.090Z,35.60
2022-12-03T01:08:14.331Z,32.88
2022-12-03T01:10:41.510Z,31.30
2022-12-03T01:13:08.568Z,36.40
2022-12-03T01:15:35.712Z,36.75
2022-12-03T01:18:02.880Z,37.55
2022-12-03T01:20:29.996Z,36.10
2022-12-03T01:22:57.109Z,37.07
2022-12-03T01:25:24.198Z,37.03
2022-12-03T01:27:51.263Z,35.75
2022-12-03T01:30:18.379Z,33.22
2022-12-03T01:32:45.511Z,37.97
2022-12-03T01:35:12.596Z,36.20
2022-12-03T01:37:39.777Z,35.70
2022-12-03T01:40:09.215Z,35.35
2022-12-03T01:42:40.527Z,35.38
2022-12-03T01:45:15.239Z,33.97
2022-12-03T01:47:42.365Z,36.20
2022-12-03T01:50:22.238Z,34.50
2022-12-03T01:52:49.532Z,35.35
2022-12-03T01:55:22.688Z,38.65
2022-12-03T01:57:57.389Z,38.55
2022-12-03T02:00:29.263Z,38.50
2022-12-03T02:03:06.840Z,35.25
2022-12-03T02:05:34.748Z,37.28
2022-12-03T02:08:02.336Z,40.25
2022-12-03T02:10:36.819Z,37.67
2022-12-03T02:13:08.583Z,38.27
2022-12-03T02:15:38.075Z,35.42
2022-12-03T02:18:05.631Z,36.15
2022-12-03T02:20:48.694Z,35.60
2022-12-03T02:24:09.413Z,37.78
2022-12-03T02:26:36.600Z,34.03
2022-12-03T02:29:03.811Z,34.65
2022-12-03T02:31:31.299Z,35.90
2022-12-03T02:33:58.455Z,37.42
2022-12-03T02:36:25.839Z,36.13
2022-12-03T02:38:53.152Z,34.80
2022-12-03T02:41:40.848Z,34.33
2022-12-03T02:44:08.940Z,33.83
2022-12-03T02:46:36.763Z,38.00
2022-12-03T02:49:06.114Z,36.53
2022-12-03T02:51:35.163Z,34.40
2022-12-03T02:54:03.518Z,33.72
2022-12-03T02:56:32.913Z,38.20
2022-12-03T02:59:03.825Z,48.83
2022-12-03T03:01:31.416Z,41.65
2022-12-03T03:03:59.579Z,38.57
2022-12-03T03:06:27.204Z,35.72
2022-12-03T03:08:54.435Z,35.88
2022-12-03T03:11:21.616Z,38.47
2022-12-03T03:13:48.804Z,35.95
2022-12-03T03:16:15.976Z,34.13
2022-12-03T03:18:43.080Z,36.83
2022-12-03T03:21:10.439Z,35.95
2022-12-03T03:23:37.538Z,35.33
2022-12-03T03:26:14.085Z,35.90
2022-12-03T03:28:47.804Z,38.80
2022-12-03T03:31:18.647Z,37.05
2022-12-03T03:33:50.023Z,35.97
2022-12-03T03:36:17.916Z,39.92
2022-12-03T03:38:45.035Z,40.10
2022-12-03T03:41:13.361Z,37.07
2022-12-03T03:43:43.233Z,35.75
2022-12-03T03:46:11.592Z,34.40
2022-12-03T03:48:41.253Z,39.72
2022-12-03T03:51:09.514Z,36.30
2022-12-03T03:53:49.925Z,33.80
2022-12-03T03:56:19.770Z,36.25
2022-12-03T03:58:47.050Z,38.40
2022-12-03T04:01:15.282Z,38.83
2022-12-03T04:03:42.621Z,37.05
2022-12-03T04:06:10.346Z,37.67
2022-12-03T04:08:37.392Z,36.03
2022-12-03T04:11:23.297Z,36.95
2022-12-03T04:13:50.400Z,38.80
2022-12-03T04:16:17.532Z,34.30
2022-12-03T04:18:44.719Z,39.43
2022-12-03T04:21:38.722Z,40.30
2022-12-03T04:24:07.967Z,35.67
2022-12-03T04:26:54.511Z,37.08
2022-12-03T04:29:22.229Z,35.42
2022-12-03T04:32:08.342Z,38.27
2022-12-03T04:34:54.655Z,37.78
2022-12-03T04:37:21.972Z,38.22
2022-12-03T04:39:49.059Z,37.88
2022-12-03T04:42:16.172Z,35.47
2022-12-03T04:44:43.333Z,35.73
2022-12-03T04:47:14.573Z,40.88
2022-12-03T04:49:45.812Z,41.92
2022-12-03T04:52:15.297Z,39.90
2022-12-03T04:54:42.867Z,35.72
2022-12-03T04:57:11.227Z,38.10
2022-12-03T04:59:39.140Z,37.75
2022-12-03T05:02:07.679Z,40.65
2022-12-03T05:04:35.170Z,36.67
2022-12-03T05:07:02.824Z,37.92
2022-12-03T05:09:30.090Z,39.47
2022-12-03T05:11:57.188Z,40.50
2022-12-03T05:14:24.416Z,37.92
2022-12-03T05:16:51.582Z,38.90
2022-12-03T05:19:18.743Z,37.90
2022-12-03T05:21:45.858Z,40.97
2022-12-03T05:24:13.733Z,42.47
2022-12-03T05:26:40.790Z,41.33
2022-12-03T05:29:07.983Z,44.35
2022-12-03T05:31:35.044Z,38.83
2022-12-03T05:34:02.178Z,45.83
2022-12-03T05:36:29.318Z,41.45
2022-12-03T05:38:56.371Z,45.90
2022-12-03T05:41:41.954Z,49.47
2022-12-03T05:44:09.052Z,50.72
2022-12-03T05:46:36.244Z,51.10
2022-12-03T05:49:03.417Z,46.80
2022-12-03T05:51:30.525Z,48.92
2022-12-03T05:53:57.572Z,47.47
2022-12-03T05:56:24.697Z,47.65
2022-12-03T05:58:51.763Z,45.10
2022-12-03T06:01:18.862Z,47.38
2022-12-03T06:03:46.050Z,48.17
2022-12-03T06:06:13.295Z,48.03
2022-12-03T06:08:40.414Z,47.05
2022-12-03T06:11:07.479Z,44.20
2022-12-03T06:13:34.571Z,46.28
2022-12-03T06:16:01.765Z,45.40
2022-12-03T06:18:28.958Z,41.45
2022-12-03T06:20:56.076Z,43.20
2022-12-03T06:23:23.123Z,44.57
2022-12-03T06:25:51.166Z,42.45
2022-12-03T06:28:18.231Z,42.50
2022-12-03T06:30:45.440Z,45.30
2022-12-03T06:33:12.583Z,43.67
2022-12-03T06:35:39.647Z,42.10
2022-12-03T06:38:06.718Z,40.47
2022-12-03T06:40:33.803Z,42.97
2022-12-03T06:43:00.926Z,40.35
2022-12-03T06:45:28.022Z,44.83
2022-12-03T06:47:55.140Z,44.77
2022-12-03T06:50:22.287Z,43.53
2022-12-03T06:53:14.368Z,45.65
2022-12-03T06:55:41.413Z,43.17
2022-12-03T06:58:08.504Z,47.60
2022-12-03T07:00:35.627Z,44.17
2022-12-03T07:03:03.020Z,45.25
2022-12-03T07:05:30.206Z,44.10
2022-12-03T07:07:57.322Z,41.03
2022-12-03T07:10:24.484Z,40.28
2022-12-03T07:12:51.593Z,39.63
2022-12-03T07:15:18.678Z,39.92
2022-12-03T07:17:45.745Z,37.08
2022-12-03T07:20:15.259Z,43.45
2022-12-03T07:22:42.369Z,38.60
2022-12-03T07:25:10.043Z,37.63
2022-12-03T07:27:37.108Z,43.13
2022-12-03T07:30:06.312Z,39.88
2022-12-03T07:32:33.393Z,36.85
2022-12-03T07:35:01.071Z,38.95
2022-12-03T07:37:28.131Z,41.60
2022-12-03T07:39:55.214Z,40.90
2022-12-03T07:42:22.326Z,44.92
2022-12-03T07:44:49.607Z,45.55
2022-12-03T07:47:16.957Z,41.75
2022-12-03T07:49:44.342Z,45.40
2022-12-03T07:52:11.401Z,45.38
2022-12-03T07:54:38.570Z,44.35
2022-12-03T07:57:05.714Z,91.40
2022-12-03T07:59:32.848Z,45.08
2022-12-03T08:02:00.128Z,42.60
2022-12-03T08:04:27.272Z,49.33
2022-12-03T08:06:54.637Z,43.05
2022-12-03T08:09:22.408Z,47.03
2022-12-03T08:11:50.361Z,44.30
2022-12-03T08:14:20.851Z,41.30
2022-12-03T08:16:48.802Z,43.95
2022-12-03T08:19:17.800Z,44.22
2022-12-03T08:21:45.403Z,46.17
2022-12-03T08:24:20.787Z,45.10
2022-12-03T08:26:49.542Z,46.03
2022-12-03T08:29:19.630Z,47.78
2022-12-03T08:31:52.071Z,48.33
2022-12-03T08:34:29.545Z,44.85
2022-12-03T08:37:02.101Z,46.70
2022-12-03T08:39:35.739Z,48.90
2022-12-03T08:42:39.185Z,50.97
2022-12-03T08:45:39.404Z,47.05
2022-12-03T08:48:29.699Z,54.17
2022-12-03T08:51:17.418Z,50.33
2022-12-03T08:53:48.556Z,51.87
2022-12-03T08:56:27.038Z,49.15
2022-12-03T08:59:24.888Z,47.75
2022-12-03T09:01:53.462Z,48.83
2022-12-03T09:04:44.827Z,47.60
2022-12-03T09:07:11.930Z,48.30
2022-12-03T09:09:39.149Z,48.90
2022-12-03T09:12:06.514Z,46.55
2022-12-03T09:14:33.659Z,49.97
2022-12-03T09:17:00.899Z,47.35
2022-12-03T09:19:30.997Z,50.30
2022-12-03T09:21:58.229Z,51.17
2022-12-03T09:24:25.497Z,55.72
2022-12-03T09:26:52.810Z,58.75
2022-12-03T09:29:20.066Z,50.15
2022-12-03T09:31:47.365Z,52.33
2022-12-03T09:34:14.591Z,49.97
2022-12-03T09:36:41.792Z,54.45
2022-12-03T09:39:08.874Z,49.95
2022-12-03T09:41:36.317Z,50.25
2022-12-03T09:44:04.914Z,47.73
2022-12-03T09:46:35.145Z,47.30
2022-12-03T09:49:03.784Z,43.75
2022-12-03T09:51:34.889Z,48.55
2022-12-03T09:54:05.786Z,41.38
2022-12-03T09:56:38.058Z,39.63
2022-12-03T09:59:16.212Z,43.85
2022-12-03T10:01:43.562Z,40.65
2022-12-03T10:04:11.294Z,43.42
2022-12-03T10:06:45.259Z,43.55
2022-12-03T10:09:17.609Z,44.87
2022-12-03T10:11:45.019Z,41.97
2022-12-03T10:14:15.010Z,40.50
2022-12-03T10:16:42.449Z,41.35
2022-12-03T10:19:25.361Z,42.20
2022-12-03T10:21:52.717Z,43.30
2022-12-03T10:24:29.771Z,38.80
2022-12-03T10:27:21.977Z,46.63
2022-12-03T10:30:01.350Z,49.13
2022-12-03T10:32:42.882Z,46.58
2022-12-03T10:35:16.272Z,51.67
2022-12-03T10:38:07.170Z,50.38
2022-12-03T10:40:38.392Z,51.42
2022-12-03T10:43:24.502Z,47.35
2022-12-03T10:46:14.182Z,51.67
2022-12-03T10:48:41.344Z,46.83
2022-12-03T10:51:21.164Z,50.15
2022-12-03T10:53:50.130Z,50.30
2022-12-03T10:56:27.404Z,44.17
2022-12-03T10:58:54.942Z,44.47
2022-12-03T11:01:25.371Z,46.63
2022-12-03T11:04:03.138Z,46.88
2022-12-03T11:06:32.979Z,45.72
2022-12-03T11:09:06.906Z,46.67
2022-12-03T11:11:35.811Z,47.53
2022-12-03T11:14:04.857Z,51.53
2022-12-03T11:16:41.058Z,47.22
2022-12-03T11:19:17.766Z,45.90
2022-12-03T11:22:06.472Z,42.38
2022-12-03T11:24:36.380Z,43.90
2022-12-03T11:27:03.431Z,45.53
2022-12-03T11:29:54.365Z,46.00
2022-12-03T11:32:42.628Z,40.50
2022-12-03T11:35:24.957Z,43.42
2022-12-03T11:37:52.227Z,40.53
2022-12-03T11:40:19.265Z,41.67
2022-12-03T11:42:48.946Z,42.13
2022-12-03T11:45:32.987Z,31.50
2022-12-03T11:48:01.668Z,32.22
2022-12-03T11:50:42.880Z,30.77
2022-12-03T11:53:25.974Z,28.17
2022-12-03T11:56:10.920Z,33.13
2022-12-03T11:58:43.057Z,33.95
2022-12-03T12:01:10.321Z,30.85
2022-12-03T12:03:49.820Z,29.42
2022-12-03T12:06:21.043Z,31.20
2022-12-03T12:08:51.337Z,32.88
2022-12-03T12:11:31.911Z,31.52
2022-12-03T12:14:07.643Z,36.10
2022-12-03T12:16:41.107Z,28.95
2022-12-03T12:19:38.659Z,31.43
2022-12-03T12:22:26.646Z,32.05
2022-12-03T12:25:25.982Z,32.08
2022-12-03T12:27:55.025Z,34.70
2022-12-03T12:30:23.355Z,38.67
2022-12-03T12:33:10.042Z,36.73
2022-12-03T12:35:37.272Z,36.75
2022-12-03T12:38:07.260Z,50.50
2022-12-03T12:40:41.154Z,38.80
2022-12-03T12:43:14.412Z,43.35
2022-12-03T12:45:44.274Z,41.40
2022-12-03T12:48:24.456Z,35.90
2022-12-03T12:51:05.741Z,39.53
2022-12-03T12:53:35.883Z,37.80
2022-12-03T12:56:23.667Z,39.47
2022-12-03T12:58:51.530Z,37.60
2022-12-03T13:01:27.524Z,42.80
2022-12-03T13:03:54.863Z,44.75
2022-12-03T13:06:27.849Z,39.85
2022-12-03T13:08:55.534Z,35.65
2022-12-03T13:11:28.369Z,46.20
2022-12-03T13:14:21.426Z,43.13
2022-12-03T13:16:51.657Z,43.58
2022-12-03T13:19:24.933Z,46.67
2022-12-03T13:22:16.859Z,54.03
2022-12-03T13:24:48.015Z,48.37
2022-12-03T13:27:17.825Z,48.10
2022-12-03T13:30:00.980Z,59.70
2022-12-03T13:32:33.680Z,47.97
2022-12-03T13:35:17.415Z,57.50
2022-12-03T13:37:45.330Z,57.90
2022-12-03T13:40:27.760Z,50.75
2022-12-03T13:42:55.104Z,59.10
2022-12-03T13:45:35.605Z,59.17
2022-12-03T13:48:24.303Z,67.13
2022-12-03T13:50:52.807Z,62.93
2022-12-03T13:53:26.952Z,58.42
2022-12-03T13:56:25.674Z,65.10
2022-12-03T13:58:52.833Z,57.97
2022-12-03T14:01:19.954Z,56.40
2022-12-03T14:03:47.163Z,55.77
2022-12-03T14:06:14.434Z,61.75
2022-12-03T14:08:41.483Z,53.00
2022-12-03T14:11:08.687Z,54.17
2022-12-03T14:13:35.754Z,63.65
2022-12-03T14:16:02.913Z,63.57
2022-12-03T14:18:30.067Z,59.88
2022-12-03T14:20:57.172Z,56.10
2022-12-03T14:23:24.306Z,56.15
2022-12-03T14:25:51.482Z,53.38
2022-12-03T14:28:18.622Z,57.13
2022-12-03T14:30:45.667Z,64.50
2022-12-03T14:33:12.791Z,48.92
2022-12-03T14:35:39.899Z,53.67
2022-12-03T14:38:07.000Z,59.33
2022-12-03T14:40:34.556Z,57.77
2022-12-03T14:43:01.650Z,71.35
2022-12-03T14:45:29.823Z,43.53
2022-12-03T14:47:56.989Z,48.47
2022-12-03T14:50:25.905Z,50.95
2022-12-03T14:52:53.083Z,47.57
2022-12-03T14:55:20.199Z,44.40
2022-12-03T14:57:47.300Z,41.28
2022-12-03T15:00:15.240Z,43.70
2022-12-03T15:02:42.401Z,40.45
2022-12-03T15:05:09.755Z,42.23
2022-12-03T15:07:39.255Z,38.50
2022-12-03T15:10:08.050Z,43.95
2022-12-03T15:12:35.218Z,37.05
2022-12-03T15:15:02.313Z,39.53
2022-12-03T15:17:31.965Z,41.20
2022-12-03T15:19:59.516Z,40.50
2022-12-03T15:22:26.634Z,39.28
2022-12-03T15:24:53.704Z,38.90
2022-12-03T15:27:20.753Z,43.33
2022-12-03T15:29:47.906Z,45.00
2022-12-03T15:32:15.075Z,53.55
2022-12-03T15:34:42.197Z,47.72
2022-12-03T15:37:09.321Z,51.83
2022-12-03T15:39:37.543Z,54.70
2022-12-03T15:42:04.710Z,62.07
2022-12-03T15:44:31.802Z,55.90
2022-12-03T15:46:58.915Z,57.17
2022-12-03T15:49:26.039Z,56.63
2022-12-03T15:51:53.946Z,56.75
2022-12-03T15:54:21.041Z,64.07
2022-12-03T15:56:51.486Z,58.92
2022-12-03T15:59:21.267Z,63.05
2022-12-03T16:01:48.382Z,66.82
2022-12-03T16:04:15.567Z,60.47
2022-12-03T16:06:42.633Z,63.83
2022-12-03T16:09:10.374Z,63.00
2022-12-03T16:11:37.478Z,60.08
2022-12-03T16:14:04.565Z,63.22
2022-12-03T16:16:31.766Z,67.10
2022-12-03T16:18:58.868Z,59.90
2022-12-03T16:21:27.178Z,67.28
2022-12-03T16:23:55.332Z,67.97
2022-12-03T16:26:22.818Z,64.72
2022-12-03T16:28:50.056Z,62.03
2022-12-03T16:31:18.959Z,68.47
2022-12-03T16:33:46.262Z,64.53
2022-12-03T16:36:13.601Z,62.33
2022-12-03T16:38:40.742Z,65.93
2022-12-03T16:41:07.874Z,65.82
2022-12-03T16:43:38.505Z,64.37
2022-12-03T16:46:20.878Z,61.95
2022-12-03T16:48:48.696Z,59.00
2022-12-03T16:51:16.583Z,59.45
2022-12-03T16:53:43.726Z,63.55
2022-12-03T16:56:10.828Z,67.03
2022-12-03T16:58:37.942Z,62.63
2022-12-03T17:01:05.499Z,61.92
2022-12-03T17:03:34.269Z,61.90
2022-12-03T17:06:02.214Z,66.88
2022-12-03T17:08:29.656Z,60.20
2022-12-03T17:10:57.083Z,67.38
2022-12-03T17:13:24.536Z,65.80
2022-12-03T17:15:51.726Z,64.75
2022-12-03T17:18:18.883Z,69.43
2022-12-03T17:20:45.992Z,65.63
2022-12-03T17:23:13.282Z,65.55
2022-12-03T17:25:40.405Z,66.70
2022-12-03T17:28:07.493Z,62.67
2022-12-03T17:30:34.596Z,67.95
2022-12-03T17:33:01.723Z,66.13
2022-12-03T17:35:28.830Z,65.65
2022-12-03T17:37:56.022Z,64.47
2022-12-03T17:40:23.328Z,63.92
2022-12-03T17:42:50.442Z,71.35
2022-12-03T17:45:17.534Z,67.07
2022-12-03T17:47:44.681Z,69.30
2022-12-03T17:50:12.345Z,86.72
2022-12-03T17:52:39.444Z,89.18
2022-12-03T17:55:13.161Z,79.40
2022-12-03T17:57:41.555Z,68.37
2022-12-03T18:00:10.297Z,71.10
2022-12-03T18:02:42.303Z,61.58
2022-12-03T18:05:09.790Z,66.85
2022-12-03T18:07:36.920Z,68.57
2022-12-03T18:10:05.173Z,67.20
2022-12-03T18:12:32.430Z,63.85
2022-12-03T18:14:59.564Z,63.50
2022-12-03T18:17:26.672Z,66.47
2022-12-03T18:19:54.249Z,67.35
2022-12-03T18:22:21.687Z,66.60
2022-12-03T18:24:51.852Z,65.10
2022-12-03T18:27:21.145Z,66.38
2022-12-03T18:29:48.803Z,69.68
2022-12-03T18:32:28.295Z,80.18
2022-12-03T18:34:57.325Z,63.40
2022-12-03T18:37:28.509Z,69.22
2022-12-03T18:39:56.759Z,65.93
2022-12-03T18:42:24.467Z,65.13
2022-12-03T18:44:54.651Z,68.65
2022-12-03T18:47:26.253Z,59.03
2022-12-03T18:49:53.987Z,61.20
2022-12-03T18:52:23.693Z,61.08
2022-12-03T18:54:50.957Z,61.42
2022-12-03T18:57:18.130Z,57.10
2022-12-03T18:59:45.318Z,58.60
2022-12-03T19:02:45.953Z,56.78
2022-12-03T19:05:07.014Z,57.17
2022-12-03T19:07:34.136Z,56.45
2022-12-03T19:10:01.257Z,58.70
2022-12-03T19:12:28.379Z,58.63
2022-12-03T19:14:55.475Z,53.13
2022-12-03T19:17:22.551Z,57.90
2022-12-03T19:19:49.810Z,59.85
2022-12-03T19:22:16.871Z,58.35
2022-12-03T19:24:44.017Z,54.03
2022-12-03T19:27:11.163Z,55.63
2022-12-03T19:29:38.298Z,54.95
2022-12-03T19:32:05.630Z,59.33
2022-12-03T19:34:32.858Z,55.40
2022-12-03T19:36:59.901Z,58.73
2022-12-03T19:39:27.019Z,53.28
2022-12-03T19:41:54.083Z,56.25
2022-12-03T19:44:21.247Z,53.60
2022-12-03T19:46:50.760Z,56.50
2022-12-03T19:49:20.732Z,53.30
2022-12-03T19:51:48.341Z,54.28
2022-12-03T19:54:15.801Z,57.58
2022-12-03T19:56:43.925Z,53.47
2022-12-03T19:59:12.845Z,52.33
2022-12-03T20:01:42.780Z,54.63
2022-12-03T20:04:12.595Z,52.20
2022-12-03T20:06:40.970Z,61.03
2022-12-03T20:09:17.141Z,54.63
2022-12-03T20:11:45.807Z,53.25
2022-12-03T20:14:16.076Z,54.53
2022-12-03T20:16:44.861Z,55.92
2022-12-03T20:19:15.949Z,53.90
2022-12-03T20:21:44.258Z,51.40
2022-12-03T20:24:16.570Z,50.85
2022-12-03T20:26:44.231Z,50.90
2022-12-03T20:29:11.831Z,52.58
2022-12-03T20:31:38.994Z,56.28
2022-12-03T20:34:07.097Z,55.42
2022-12-03T20:36:34.352Z,52.78
2022-12-03T20:39:06.855Z,56.40
2022-12-03T20:41:37.578Z,52.13
2022-12-03T20:44:07.379Z,56.10
2022-12-03T20:46:35.221Z,52.60
2022-12-03T20:49:02.455Z,54.72
2022-12-03T20:51:33.652Z,53.17
2022-12-03T20:54:01.874Z,50.75
2022-12-03T20:56:36.303Z,52.35
2022-12-03T20:59:06.808Z,52.58
2022-12-03T21:01:35.766Z,53.00
2022-12-03T21:04:04.566Z,52.67
2022-12-03T21:06:34.911Z,54.10
2022-12-03T21:09:05.012Z,49.90
2022-12-03T21:11:35.530Z,54.10
2022-12-03T21:14:04.031Z,53.80
2022-12-03T21:17:06.107Z,61.87
2022-12-03T21:19:23.142Z,56.53
2022-12-03T21:21:50.402Z,54.25
2022-12-03T21:24:17.545Z,56.30
2022-12-03T21:26:44.622Z,53.78
2022-12-03T21:29:14.690Z,49.77
2022-12-03T21:31:41.806Z,51.85
2022-12-03T21:34:08.970Z,53.65
2022-12-03T21:36:36.125Z,55.95
2022-12-03T21:39:03.829Z,56.45
2022-12-03T21:41:31.822Z,57.77
2022-12-03T21:43:59.366Z,57.08
2022-12-03T21:47:09.746Z,55.97
2022-12-03T21:49:14.401Z,56.67
2022-12-03T21:51:41.455Z,56.05
2022-12-03T21:54:08.577Z,54.83
2022-12-03T21:56:35.779Z,57.38
2022-12-03T21:59:02.885Z,52.58
2022-12-03T22:01:30.325Z,55.58
2022-12-03T22:03:58.221Z,53.35
2022-12-03T22:06:25.322Z,51.27
2022-12-03T22:08:52.624Z,52.67
2022-12-03T22:11:24.439Z,57.25
2022-12-03T22:13:51.740Z,54.55
2022-12-03T22:16:21.595Z,56.72
2022-12-03T22:18:49.289Z,57.27
2022-12-03T22:21:19.942Z,58.83
2022-12-03T22:23:47.107Z,52.75
2022-12-03T22:26:19.187Z,51.90
2022-12-03T22:28:48.864Z,55.33
2022-12-03T22:31:17.837Z,56.23
2022-12-03T22:33:48.143Z,54.05
2022-12-03T22:36:20.465Z,57.67
2022-12-03T22:38:49.646Z,57.55
2022-12-03T22:41:17.661Z,59.15
2022-12-03T22:43:46.180Z,58.30
2022-12-03T22:46:14.505Z,61.35
2022-12-03T22:48:43.813Z,66.38
2022-12-03T22:51:20.099Z,52.08
2022-12-03T22:53:47.836Z,59.85
2022-12-03T22:56:15.915Z,56.87
2022-12-03T22:58:43.040Z,61.67
2022-12-03T23:01:10.151Z,61.55
2022-12-03T23:03:37.573Z,62.85
2022-12-03T23:06:12.545Z,61.10
2022-12-03T23:08:39.854Z,64.33
2022-12-03T23:11:07.366Z,63.17
2022-12-03T23:13:35.247Z,59.50
2022-12-03T23:16:03.311Z,64.35
2022-12-03T23:18:30.518Z,63.25
2022-12-03T23:20:57.872Z,66.10
2022-12-03T23:23:27.454Z,61.08
2022-12-03T23:26:09.075Z,66.75
2022-12-03T23:28:40.688Z,66.10
2022-12-03T23:31:18.253Z,57.55
2022-12-03T23:33:45.802Z,65.13
2022-12-03T23:36:13.230Z,66.07
2022-12-03T23:38:40.911Z,62.83
2022-12-03T23:41:12.252Z,61.50
2022-12-03T23:43:40.929Z,60.88
2022-12-03T23:46:12.074Z,64.23
2022-12-03T23:48:39.641Z,59.47
2022-12-03T23:51:10.041Z,63.88
2022-12-03T23:53:38.562Z,69.40
2022-12-03T23:56:12.899Z,62.35
2022-12-03T23:58:40.076Z,61.80
